createdAt,value
2019-02-02T00:02:26.318Z,5.92
2019-02-02T00:06:30.676Z,5.92
2019-02-02T00:10:35.063Z,5.95
2019-02-02T00:14:39.536Z,5.96
2019-02-02T00:18:43.883Z,5.98
2019-02-02T00:22:48.296Z,5.99
2019-02-02T00:26:52.600Z,6.01
2019-02-02T00:30:56.870Z,6.05
2019-02-02T00:35:01.293Z,6.11
2019-02-02T00:39:09.968Z,6.13
2019-02-02T00:43:14.338Z,6.20
2019-02-02T00:47:18.627Z,6.26
2019-02-02T00:51:22.952Z,6.27
2019-02-02T00:55:27.468Z,6.32
2019-02-02T00:59:31.767Z,6.34
2019-02-02T01:03:35.996Z,6.37
2019-02-02T01:07:40.402Z,6.38
2019-02-02T01:11:45.044Z,6.41
2019-02-02T01:15:49.368Z,6.44
2019-02-02T01:19:53.674Z,6.48
2019-02-02T01:23:57.940Z,6.52
2019-02-02T01:28:05.276Z,6.55
2019-02-02T01:32:08.312Z,6.59
2019-02-02T01:36:12.593Z,6.60
2019-02-02T01:40:18.816Z,6.61
2019-02-02T01:44:23.113Z,6.60
2019-02-02T01:48:27.365Z,6.59
2019-02-02T01:52:31.695Z,6.62
2019-02-02T01:56:36.028Z,6.65
2019-02-02T02:00:40.290Z,6.73
2019-02-02T02:04:44.561Z,6.81
2019-02-02T02:08:48.884Z,6.88
2019-02-02T02:12:53.258Z,6.96
2019-02-02T02:16:57.508Z,7.01
2019-02-02T02:21:01.802Z,7.02
2019-02-02T02:25:08.025Z,7.01
2019-02-02T02:29:12.594Z,6.91
2019-02-02T02:33:16.910Z,6.81
2019-02-02T02:37:21.182Z,6.72
2019-02-02T02:41:25.477Z,6.73
2019-02-02T02:45:29.765Z,6.79
2019-02-02T02:49:34.034Z,6.89
2019-02-02T02:53:38.322Z,7.01
2019-02-02T02:57:42.706Z,7.23
2019-02-02T03:01:47.032Z,7.49
2019-02-02T03:05:51.304Z,7.77
2019-02-02T03:09:55.682Z,8.04
2019-02-02T03:14:00.010Z,8.26
2019-02-02T03:18:04.356Z,8.44
2019-02-02T03:22:08.753Z,8.66
2019-02-02T03:26:13.042Z,8.80
2019-02-02T03:30:21.054Z,8.91
2019-02-02T03:34:25.297Z,8.98
2019-02-02T03:38:29.570Z,9.08
2019-02-02T03:42:33.816Z,9.14
2019-02-02T03:46:38.133Z,9.18
2019-02-02T03:50:42.472Z,9.21
2019-02-02T03:54:46.820Z,9.26
2019-02-02T03:58:51.102Z,9.29
2019-02-02T04:02:55.432Z,9.35
2019-02-02T04:06:59.728Z,9.42
2019-02-02T04:11:04.109Z,9.52
2019-02-02T04:15:08.795Z,9.60
2019-02-02T04:19:13.098Z,9.66
2019-02-02T04:23:17.399Z,9.73
2019-02-02T04:27:23.751Z,9.76
2019-02-02T04:31:28.097Z,9.87
2019-02-02T04:35:32.361Z,9.92
2019-02-02T04:39:36.614Z,9.95
2019-02-02T04:43:40.886Z,9.96
2019-02-02T04:47:45.111Z,9.97
2019-02-02T04:51:49.368Z,9.98
2019-02-02T04:55:53.611Z,9.96
2019-02-02T04:59:57.895Z,9.94
2019-02-02T05:04:02.123Z,9.93
2019-02-02T05:08:06.378Z,9.89
2019-02-02T05:12:11.537Z,9.87
2019-02-02T05:16:15.769Z,9.87
2019-02-02T05:20:20.100Z,9.91
2019-02-02T05:24:24.358Z,9.96
2019-02-02T05:28:28.915Z,9.97
2019-02-02T05:32:33.207Z,10.00
2019-02-02T05:36:37.456Z,10.01
2019-02-02T05:40:41.734Z,10.02
2019-02-02T05:44:46.007Z,10.02
2019-02-02T05:48:50.303Z,10.00
2019-02-02T05:52:54.534Z,10.01
2019-02-02T05:56:58.791Z,10.00
2019-02-02T06:01:03.080Z,10.03
2019-02-02T06:05:07.453Z,10.07
2019-02-02T06:09:11.790Z,10.10
2019-02-02T06:13:16.015Z,10.10
2019-02-02T06:17:20.405Z,10.09
2019-02-02T06:21:24.671Z,10.09
2019-02-02T06:25:28.947Z,10.11
2019-02-02T06:29:33.231Z,10.08
2019-02-02T06:33:37.496Z,10.06
2019-02-02T06:37:41.798Z,10.04
2019-02-02T06:41:46.029Z,10.17
2019-02-02T06:45:50.328Z,10.26
2019-02-02T06:49:54.614Z,10.35
2019-02-02T06:53:58.878Z,10.36
2019-02-02T06:58:03.931Z,10.35
2019-02-02T07:02:08.356Z,10.29
2019-02-02T07:06:12.612Z,10.26
2019-02-02T07:10:21.734Z,10.21
2019-02-02T07:14:26.095Z,10.22
2019-02-02T07:18:30.415Z,10.33
2019-02-02T07:22:34.948Z,10.29
2019-02-02T07:26:39.324Z,10.24
2019-02-02T07:30:43.575Z,10.24
2019-02-02T07:34:47.881Z,10.28
2019-02-02T07:38:52.137Z,10.33
2019-02-02T07:42:56.625Z,10.39
2019-02-02T07:47:00.931Z,10.43
2019-02-02T07:51:05.479Z,10.50
2019-02-02T07:55:10.884Z,10.57
2019-02-02T07:59:15.212Z,10.60
2019-02-02T08:03:19.799Z,10.59
2019-02-02T08:07:24.103Z,10.58
2019-02-02T08:11:28.386Z,10.55
2019-02-02T08:15:33.277Z,10.56
2019-02-02T08:19:37.551Z,10.55
2019-02-02T08:23:41.827Z,10.53
2019-02-02T08:27:46.058Z,10.52
2019-02-02T08:31:50.434Z,10.51
2019-02-02T08:35:54.737Z,10.52
2019-02-02T08:39:59.044Z,10.53
2019-02-02T08:44:03.369Z,10.57
2019-02-02T08:48:07.707Z,10.59
2019-02-02T08:52:12.001Z,10.59
2019-02-02T08:56:16.259Z,10.65
2019-02-02T09:00:21.016Z,10.64
2019-02-02T09:04:25.407Z,10.68
2019-02-02T09:08:29.654Z,10.73
2019-02-02T09:12:33.921Z,10.78
2019-02-02T09:16:38.209Z,10.81
2019-02-02T09:20:42.506Z,10.85
2019-02-02T09:24:46.792Z,10.90
2019-02-02T09:28:51.181Z,10.96
2019-02-02T09:32:55.553Z,10.96
2019-02-02T09:36:59.840Z,11.00
2019-02-02T09:41:04.321Z,11.00
2019-02-02T09:45:10.235Z,11.05
2019-02-02T09:49:14.534Z,11.08
2019-02-02T09:53:18.851Z,11.18
2019-02-02T09:57:23.325Z,11.21
2019-02-02T10:01:28.201Z,11.25
2019-02-02T10:05:32.697Z,11.30
2019-02-02T10:09:37.080Z,11.35
2019-02-02T10:13:41.788Z,11.36
2019-02-02T10:17:46.149Z,11.34
2019-02-02T10:21:50.553Z,11.35
2019-02-02T10:25:54.851Z,11.36
2019-02-02T10:29:59.130Z,11.40
2019-02-02T10:34:03.536Z,11.44
2019-02-02T10:38:07.974Z,11.54
2019-02-02T10:42:12.514Z,11.60
2019-02-02T10:46:16.823Z,11.67
2019-02-02T10:50:21.672Z,11.87
2019-02-02T10:54:25.978Z,11.87
2019-02-02T10:58:30.275Z,11.98
2019-02-02T11:02:34.629Z,12.15
2019-02-02T11:06:39.064Z,12.25
2019-02-02T11:10:43.454Z,12.35
2019-02-02T11:14:47.829Z,12.43
2019-02-02T11:18:52.187Z,12.52
2019-02-02T11:22:56.572Z,12.61
2019-02-02T11:27:01.123Z,12.74
2019-02-02T11:31:05.611Z,12.87
2019-02-02T11:35:11.519Z,12.99
2019-02-02T11:39:15.823Z,13.14
2019-02-02T11:43:20.183Z,13.26
2019-02-02T11:47:24.515Z,13.35
2019-02-02T11:51:28.775Z,13.41
2019-02-02T11:55:33.053Z,13.42
2019-02-02T11:59:37.405Z,13.45
2019-02-02T12:03:41.676Z,13.46
2019-02-02T12:07:46.245Z,13.47
2019-02-02T12:11:50.550Z,13.49
2019-02-02T12:15:54.983Z,13.52
2019-02-02T12:19:59.477Z,13.55
2019-02-02T12:24:13.282Z,13.59
2019-02-02T12:28:09.788Z,13.62
2019-02-02T12:32:25.904Z,13.63
2019-02-02T12:36:20.518Z,13.68
2019-02-02T12:40:25.359Z,13.72
2019-02-02T12:44:29.655Z,13.75
2019-02-02T12:48:34.080Z,13.83
2019-02-02T12:52:38.506Z,13.87
2019-02-02T12:56:42.810Z,13.94
2019-02-02T13:00:47.084Z,13.98
2019-02-02T13:04:51.325Z,14.01
2019-02-02T13:08:55.657Z,14.03
2019-02-02T13:13:00.046Z,14.08
2019-02-02T13:17:04.395Z,14.09
2019-02-02T13:21:08.682Z,14.19
2019-02-02T13:25:14.856Z,14.34
2019-02-02T13:29:19.175Z,14.45
2019-02-02T13:33:23.470Z,14.51
2019-02-02T13:37:27.839Z,14.58
2019-02-02T13:41:32.154Z,14.61
2019-02-02T13:45:36.468Z,14.66
2019-02-02T13:49:40.734Z,14.68
2019-02-02T13:53:45.062Z,14.71
2019-02-02T13:57:49.329Z,14.73
2019-02-02T14:01:53.741Z,14.74
2019-02-02T14:05:58.052Z,14.71
2019-02-02T14:10:02.781Z,14.67
2019-02-02T14:14:07.084Z,14.64
2019-02-02T14:18:11.471Z,14.63
2019-02-02T14:22:15.801Z,14.59
2019-02-02T14:26:20.111Z,14.56
2019-02-02T14:30:25.627Z,14.52
2019-02-02T14:34:39.932Z,14.48
2019-02-02T14:38:35.963Z,14.47
2019-02-02T14:42:40.405Z,14.40
2019-02-02T14:46:44.710Z,14.36
2019-02-02T14:50:48.995Z,14.33
2019-02-02T14:54:53.276Z,14.32
2019-02-02T14:58:57.605Z,14.29
2019-02-02T15:03:03.718Z,14.27
2019-02-02T15:07:08.306Z,14.26
2019-02-02T15:11:12.577Z,14.23
2019-02-02T15:15:16.885Z,14.25
2019-02-02T15:19:21.148Z,14.25
2019-02-02T15:23:25.474Z,14.24
2019-02-02T15:27:29.802Z,14.24
2019-02-02T15:31:34.990Z,14.22
2019-02-02T15:35:39.276Z,14.23
2019-02-02T15:39:43.553Z,14.28
2019-02-02T15:43:47.874Z,14.27
2019-02-02T15:47:52.210Z,14.25
2019-02-02T15:51:58.763Z,14.22
2019-02-02T15:56:03.010Z,14.18
2019-02-02T16:00:11.216Z,14.17
2019-02-02T16:04:15.484Z,14.12
2019-02-02T16:08:20.127Z,14.02
2019-02-02T16:12:24.403Z,13.87
2019-02-02T16:16:28.846Z,13.68
2019-02-02T16:20:35.537Z,13.49
2019-02-02T16:24:39.875Z,13.43
2019-02-02T16:28:44.305Z,13.35
2019-02-02T16:32:48.670Z,13.30
2019-02-02T16:36:53.041Z,13.26
2019-02-02T16:40:57.310Z,13.23
2019-02-02T16:45:01.574Z,13.19
2019-02-02T16:49:05.842Z,13.08
2019-02-02T16:53:10.102Z,12.92
2019-02-02T16:57:14.462Z,12.56
2019-02-02T17:01:18.737Z,12.31
2019-02-02T17:05:23.087Z,12.08
2019-02-02T17:09:27.396Z,11.82
2019-02-02T17:13:31.643Z,11.54
2019-02-02T17:17:35.893Z,11.35
2019-02-02T17:21:40.474Z,11.26
2019-02-02T17:25:44.859Z,11.14
2019-02-02T17:29:49.217Z,11.07
2019-02-02T17:33:53.684Z,11.06
2019-02-02T17:37:57.952Z,11.01
2019-02-02T17:42:03.937Z,10.96
2019-02-02T17:46:08.218Z,10.90
2019-02-02T17:50:14.893Z,10.85
2019-02-02T17:54:19.272Z,10.88
2019-02-02T17:58:23.585Z,10.89
2019-02-02T18:02:27.886Z,10.93
2019-02-02T18:06:32.199Z,10.94
2019-02-02T18:10:36.497Z,10.92
2019-02-02T18:14:40.812Z,10.91
2019-02-02T18:18:45.076Z,10.91
2019-02-02T18:22:49.434Z,10.88
2019-02-02T18:26:53.751Z,10.78
2019-02-02T18:30:58.063Z,10.67
2019-02-02T18:35:02.463Z,10.62
2019-02-02T18:39:09.164Z,10.53
2019-02-02T18:43:13.459Z,10.43
2019-02-02T18:47:17.715Z,10.37
2019-02-02T18:51:22.071Z,10.32
2019-02-02T18:55:29.132Z,10.24
2019-02-02T18:59:36.623Z,10.17
2019-02-02T19:03:44.062Z,10.02
2019-02-02T19:07:48.791Z,9.82
2019-02-02T19:11:53.156Z,9.74
2019-02-02T19:15:57.417Z,9.71
2019-02-02T19:20:01.663Z,9.68
2019-02-02T19:24:09.117Z,9.67
2019-02-02T19:28:12.364Z,9.58
2019-02-02T19:32:16.683Z,9.55
2019-02-02T19:36:20.981Z,9.46
2019-02-02T19:40:25.352Z,9.39
2019-02-02T19:44:29.658Z,9.36
2019-02-02T19:48:34.046Z,9.31
2019-02-02T19:52:40.490Z,9.24
2019-02-02T19:56:44.696Z,9.08
2019-02-02T20:00:49.049Z,9.03
2019-02-02T20:04:54.706Z,9.03
2019-02-02T20:08:59.027Z,9.08
2019-02-02T20:13:03.275Z,9.14
2019-02-02T20:17:07.624Z,9.17
2019-02-02T20:21:11.928Z,9.22
2019-02-02T20:25:16.294Z,9.23
2019-02-02T20:29:20.520Z,9.24
2019-02-02T20:33:24.881Z,9.24
2019-02-02T20:37:29.159Z,9.25
2019-02-02T20:41:33.485Z,9.26
2019-02-02T20:45:37.774Z,9.24
2019-02-02T20:49:42.052Z,9.22
2019-02-02T20:53:46.716Z,9.16
2019-02-02T20:57:51.132Z,9.13
2019-02-02T21:01:55.448Z,9.07
2019-02-02T21:05:59.736Z,8.99
2019-02-02T21:10:04.013Z,8.92
2019-02-02T21:14:08.407Z,8.86
2019-02-02T21:18:12.718Z,8.83
2019-02-02T21:22:16.992Z,8.81
2019-02-02T21:26:21.246Z,8.74
2019-02-02T21:30:27.850Z,8.64
2019-02-02T21:34:32.133Z,8.62
2019-02-02T21:38:36.404Z,8.60
2019-02-02T21:42:40.899Z,8.59
2019-02-02T21:46:45.274Z,8.61
2019-02-02T21:50:49.467Z,8.65
2019-02-02T21:54:53.818Z,8.62
2019-02-02T21:58:58.593Z,8.62
2019-02-02T22:03:02.940Z,8.58
2019-02-02T22:07:07.264Z,8.55
2019-02-02T22:11:11.827Z,8.54
2019-02-02T22:15:18.641Z,8.56
2019-02-02T22:19:23.725Z,8.53
2019-02-02T22:23:28.067Z,8.51
2019-02-02T22:27:32.342Z,8.47
2019-02-02T22:31:36.978Z,8.43
2019-02-02T22:35:41.259Z,8.42
2019-02-02T22:39:45.480Z,8.42
2019-02-02T22:43:49.777Z,8.33
2019-02-02T22:47:54.419Z,8.28
2019-02-02T22:52:00.007Z,8.17
2019-02-02T22:56:04.648Z,8.12
2019-02-02T23:00:29.995Z,8.06
2019-02-02T23:05:20.809Z,8.03
2019-02-02T23:10:01.919Z,7.99
2019-02-02T23:14:50.303Z,7.96
2019-02-02T23:18:54.672Z,7.92
2019-02-02T23:22:58.995Z,7.90
2019-02-02T23:27:03.300Z,7.88
2019-02-02T23:31:07.603Z,7.87
2019-02-02T23:35:12.392Z,7.80
2019-02-02T23:39:16.682Z,7.83
2019-02-02T23:43:20.971Z,7.85
2019-02-02T23:47:25.232Z,7.89
2019-02-02T23:51:29.492Z,7.89
2019-02-02T23:55:33.801Z,7.82
2019-02-02T23:59:38.111Z,7.75
